sensor_id;sensor_type;location;lat;lon;timestamp;P1;durP1;ratioP1;P2;durP2;ratioP2
9771;SDS011;4925;52.588;13.370;2023-10-31T00:02:01;9.50;;;3.80;;
9771;SDS011;4925;52.588;13.370;2023-10-31T00:04:28;5.33;;;3.20;;
9771;SDS011;4925;52.588;13.370;2023-10-31T00:06:53;5.03;;;3.07;;
9771;SDS011;4925;52.588;13.370;2023-10-31T00:09:19;3.50;;;3.00;;
9771;SDS011;4925;52.588;13.370;2023-10-31T00:11:45;5.47;;;3.70;;
9771;SDS011;4925;52.588;13.370;2023-10-31T00:14:12;5.50;;;3.50;;
9771;SDS011;4925;52.588;13.370;2023-10-31T00:16:37;6.43;;;3.50;;
9771;SDS011;4925;52.588;13.370;2023-10-31T00:19:03;4.73;;;3.20;;
9771;SDS011;4925;52.588;13.370;2023-10-31T00:21:29;3.97;;;3.57;;
9771;SDS011;4925;52.588;13.370;2023-10-31T00:23:55;4.57;;;3.30;;
9771;SDS011;4925;52.588;13.370;2023-10-31T00:26:20;5.57;;;3.30;;
9771;SDS011;4925;52.588;13.370;2023-10-31T00:28:47;4.80;;;3.47;;
9771;SDS011;4925;52.588;13.370;2023-10-31T00:31:13;5.67;;;3.47;;
9771;SDS011;4925;52.588;13.370;2023-10-31T00:33:40;5.50;;;3.50;;
9771;SDS011;4925;52.588;13.370;2023-10-31T00:36:06;5.40;;;3.40;;
9771;SDS011;4925;52.588;13.370;2023-10-31T00:38:35;4.03;;;3.63;;
9771;SDS011;4925;52.588;13.370;2023-10-31T00:41:01;6.43;;;3.20;;
9771;SDS011;4925;52.588;13.370;2023-10-31T00:43:27;5.73;;;3.67;;
9771;SDS011;4925;52.588;13.370;2023-10-31T00:45:52;5.27;;;3.60;;
9771;SDS011;4925;52.588;13.370;2023-10-31T00:48:19;7.13;;;3.80;;
9771;SDS011;4925;52.588;13.370;2023-10-31T00:50:45;4.43;;;3.80;;
9771;SDS011;4925;52.588;13.370;2023-10-31T00:53:10;4.37;;;3.50;;
9771;SDS011;4925;52.588;13.370;2023-10-31T00:55:38;4.23;;;3.83;;
9771;SDS011;4925;52.588;13.370;2023-10-31T00:58:04;4.80;;;4.07;;
9771;SDS011;4925;52.588;13.370;2023-10-31T01:00:30;5.37;;;3.07;;
9771;SDS011;4925;52.588;13.370;2023-10-31T01:02:56;6.37;;;3.53;;
9771;SDS011;4925;52.588;13.370;2023-10-31T01:05:22;4.43;;;4.00;;
9771;SDS011;4925;52.588;13.370;2023-10-31T01:07:48;4.20;;;3.27;;
9771;SDS011;4925;52.588;13.370;2023-10-31T01:10:13;9.57;;;4.40;;
9771;SDS011;4925;52.588;13.370;2023-10-31T01:12:39;9.10;;;4.10;;
9771;SDS011;4925;52.588;13.370;2023-10-31T01:15:05;6.60;;;3.60;;
9771;SDS011;4925;52.588;13.370;2023-10-31T01:17:32;6.53;;;3.40;;
9771;SDS011;4925;52.588;13.370;2023-10-31T01:19:58;7.00;;;3.77;;
9771;SDS011;4925;52.588;13.370;2023-10-31T01:22:24;8.30;;;3.70;;
9771;SDS011;4925;52.588;13.370;2023-10-31T01:24:49;4.30;;;3.77;;
9771;SDS011;4925;52.588;13.370;2023-10-31T01:27:15;10.07;;;3.53;;
9771;SDS011;4925;52.588;13.370;2023-10-31T01:29:41;9.37;;;4.07;;
9771;SDS011;4925;52.588;13.370;2023-10-31T01:32:07;3.97;;;3.53;;
9771;SDS011;4925;52.588;13.370;2023-10-31T01:34:33;3.80;;;3.40;;
9771;SDS011;4925;52.588;13.370;2023-10-31T01:36:59;4.77;;;3.67;;
9771;SDS011;4925;52.588;13.370;2023-10-31T01:39:25;5.63;;;3.40;;
9771;SDS011;4925;52.588;13.370;2023-10-31T01:41:50;5.93;;;3.63;;
9771;SDS011;4925;52.588;13.370;2023-10-31T01:44:17;7.80;;;3.97;;
9771;SDS011;4925;52.588;13.370;2023-10-31T01:46:43;6.17;;;4.13;;
9771;SDS011;4925;52.588;13.370;2023-10-31T01:49:08;7.80;;;4.77;;
9771;SDS011;4925;52.588;13.370;2023-10-31T01:51:34;9.13;;;3.77;;
9771;SDS011;4925;52.588;13.370;2023-10-31T01:54:00;6.63;;;4.00;;
9771;SDS011;4925;52.588;13.370;2023-10-31T01:56:26;4.43;;;3.67;;
9771;SDS011;4925;52.588;13.370;2023-10-31T01:58:52;7.33;;;3.57;;
9771;SDS011;4925;52.588;13.370;2023-10-31T02:01:18;8.80;;;4.30;;
9771;SDS011;4925;52.588;13.370;2023-10-31T02:03:45;5.13;;;3.70;;
9771;SDS011;4925;52.588;13.370;2023-10-31T02:06:10;6.30;;;4.60;;
9771;SDS011;4925;52.588;13.370;2023-10-31T02:08:36;6.67;;;3.47;;
9771;SDS011;4925;52.588;13.370;2023-10-31T02:11:02;5.07;;;3.43;;
9771;SDS011;4925;52.588;13.370;2023-10-31T02:13:28;7.03;;;4.20;;
9771;SDS011;4925;52.588;13.370;2023-10-31T02:15:54;5.27;;;3.53;;
9771;SDS011;4925;52.588;13.370;2023-10-31T02:18:20;4.80;;;3.57;;
9771;SDS011;4925;52.588;13.370;2023-10-31T02:20:46;5.33;;;4.20;;
9771;SDS011;4925;52.588;13.370;2023-10-31T02:23:15;6.07;;;4.03;;
9771;SDS011;4925;52.588;13.370;2023-10-31T02:25:41;7.07;;;4.33;;
9771;SDS011;4925;52.588;13.370;2023-10-31T02:28:08;6.60;;;4.00;;
9771;SDS011;4925;52.588;13.370;2023-10-31T02:30:34;4.47;;;3.63;;
9771;SDS011;4925;52.588;13.370;2023-10-31T02:33:02;5.50;;;3.93;;
9771;SDS011;4925;52.588;13.370;2023-10-31T02:35:28;9.80;;;3.97;;
9771;SDS011;4925;52.588;13.370;2023-10-31T02:37:54;6.00;;;3.97;;
9771;SDS011;4925;52.588;13.370;2023-10-31T02:40:19;7.70;;;4.10;;
9771;SDS011;4925;52.588;13.370;2023-10-31T02:42:45;5.60;;;4.03;;
9771;SDS011;4925;52.588;13.370;2023-10-31T02:45:10;4.57;;;4.07;;
9771;SDS011;4925;52.588;13.370;2023-10-31T02:47:36;7.77;;;3.90;;
9771;SDS011;4925;52.588;13.370;2023-10-31T02:50:03;7.40;;;4.43;;
9771;SDS011;4925;52.588;13.370;2023-10-31T02:52:29;6.33;;;3.90;;
9771;SDS011;4925;52.588;13.370;2023-10-31T02:54:55;5.03;;;4.13;;
9771;SDS011;4925;52.588;13.370;2023-10-31T02:57:21;4.43;;;3.50;;
9771;SDS011;4925;52.588;13.370;2023-10-31T02:59:47;5.83;;;4.23;;
9771;SDS011;4925;52.588;13.370;2023-10-31T03:02:12;8.30;;;3.70;;
9771;SDS011;4925;52.588;13.370;2023-10-31T03:04:38;7.73;;;3.93;;
9771;SDS011;4925;52.588;13.370;2023-10-31T03:07:03;6.60;;;3.90;;
9771;SDS011;4925;52.588;13.370;2023-10-31T03:09:29;5.67;;;3.90;;
9771;SDS011;4925;52.588;13.370;2023-10-31T03:11:55;5.97;;;4.20;;
9771;SDS011;4925;52.588;13.370;2023-10-31T03:14:21;7.83;;;4.40;;
9771;SDS011;4925;52.588;13.370;2023-10-31T03:16:46;7.07;;;3.97;;
9771;SDS011;4925;52.588;13.370;2023-10-31T03:19:12;7.33;;;4.63;;
9771;SDS011;4925;52.588;13.370;2023-10-31T03:21:39;6.27;;;4.13;;
9771;SDS011;4925;52.588;13.370;2023-10-31T03:24:04;6.60;;;4.60;;
9771;SDS011;4925;52.588;13.370;2023-10-31T03:26:30;6.60;;;4.60;;
9771;SDS011;4925;52.588;13.370;2023-10-31T03:28:56;5.03;;;4.40;;
9771;SDS011;4925;52.588;13.370;2023-10-31T03:31:23;6.60;;;3.97;;
9771;SDS011;4925;52.588;13.370;2023-10-31T03:33:49;7.03;;;4.77;;
9771;SDS011;4925;52.588;13.370;2023-10-31T03:36:16;7.27;;;4.43;;
9771;SDS011;4925;52.588;13.370;2023-10-31T03:38:42;6.20;;;4.60;;
9771;SDS011;4925;52.588;13.370;2023-10-31T03:41:08;7.43;;;4.73;;
9771;SDS011;4925;52.588;13.370;2023-10-31T03:43:33;6.83;;;4.87;;
9771;SDS011;4925;52.588;13.370;2023-10-31T03:45:59;6.57;;;4.50;;
9771;SDS011;4925;52.588;13.370;2023-10-31T03:48:25;11.93;;;5.00;;
9771;SDS011;4925;52.588;13.370;2023-10-31T03:50:51;7.47;;;4.17;;
9771;SDS011;4925;52.588;13.370;2023-10-31T03:53:17;8.43;;;5.60;;
9771;SDS011;4925;52.588;13.370;2023-10-31T03:55:42;5.00;;;4.50;;
9771;SDS011;4925;52.588;13.370;2023-10-31T03:58:08;9.27;;;5.43;;
9771;SDS011;4925;52.588;13.370;2023-10-31T04:00:33;6.53;;;4.53;;
9771;SDS011;4925;52.588;13.370;2023-10-31T04:02:59;6.13;;;5.07;;
9771;SDS011;4925;52.588;13.370;2023-10-31T04:05:25;8.07;;;4.73;;
9771;SDS011;4925;52.588;13.370;2023-10-31T04:07:50;7.37;;;5.17;;
9771;SDS011;4925;52.588;13.370;2023-10-31T04:10:17;5.37;;;4.73;;
9771;SDS011;4925;52.588;13.370;2023-10-31T04:12:43;6.83;;;4.60;;
9771;SDS011;4925;52.588;13.370;2023-10-31T04:15:09;5.43;;;4.37;;
9771;SDS011;4925;52.588;13.370;2023-10-31T04:17:35;5.73;;;4.90;;
9771;SDS011;4925;52.588;13.370;2023-10-31T04:20:01;8.17;;;5.03;;
9771;SDS011;4925;52.588;13.370;2023-10-31T04:22:28;7.80;;;4.30;;
9771;SDS011;4925;52.588;13.370;2023-10-31T04:24:53;6.47;;;4.70;;
9771;SDS011;4925;52.588;13.370;2023-10-31T04:27:19;6.87;;;5.13;;
9771;SDS011;4925;52.588;13.370;2023-10-31T04:29:45;9.23;;;5.30;;
9771;SDS011;4925;52.588;13.370;2023-10-31T04:32:11;5.00;;;4.47;;
9771;SDS011;4925;52.588;13.370;2023-10-31T04:34:39;6.37;;;4.73;;
9771;SDS011;4925;52.588;13.370;2023-10-31T04:37:06;6.53;;;4.60;;
9771;SDS011;4925;52.588;13.370;2023-10-31T04:39:31;6.57;;;5.20;;
9771;SDS011;4925;52.588;13.370;2023-10-31T04:41:57;7.07;;;4.80;;
9771;SDS011;4925;52.588;13.370;2023-10-31T04:44:24;9.00;;;4.90;;
9771;SDS011;4925;52.588;13.370;2023-10-31T04:46:50;4.70;;;4.27;;
9771;SDS011;4925;52.588;13.370;2023-10-31T04:49:15;6.47;;;4.60;;
9771;SDS011;4925;52.588;13.370;2023-10-31T04:51:42;5.47;;;4.73;;
9771;SDS011;4925;52.588;13.370;2023-10-31T04:54:10;5.40;;;4.87;;
9771;SDS011;4925;52.588;13.370;2023-10-31T04:56:36;6.13;;;4.70;;
9771;SDS011;4925;52.588;13.370;2023-10-31T04:59:01;6.60;;;4.97;;
9771;SDS011;4925;52.588;13.370;2023-10-31T05:01:28;6.30;;;4.93;;
9771;SDS011;4925;52.588;13.370;2023-10-31T05:03:55;6.73;;;5.97;;
9771;SDS011;4925;52.588;13.370;2023-10-31T05:06:21;6.03;;;5.23;;
9771;SDS011;4925;52.588;13.370;2023-10-31T05:08:48;5.93;;;4.93;;
9771;SDS011;4925;52.588;13.370;2023-10-31T05:11:18;8.27;;;5.17;;
9771;SDS011;4925;52.588;13.370;2023-10-31T05:13:45;6.43;;;5.27;;
9771;SDS011;4925;52.588;13.370;2023-10-31T05:16:12;7.70;;;4.90;;
9771;SDS011;4925;52.588;13.370;2023-10-31T05:18:50;6.33;;;4.97;;
9771;SDS011;4925;52.588;13.370;2023-10-31T05:21:19;6.07;;;5.37;;
9771;SDS011;4925;52.588;13.370;2023-10-31T05:23:49;5.10;;;4.60;;
9771;SDS011;4925;52.588;13.370;2023-10-31T05:26:17;5.47;;;4.90;;
9771;SDS011;4925;52.588;13.370;2023-10-31T05:28:43;6.33;;;4.63;;
9771;SDS011;4925;52.588;13.370;2023-10-31T05:31:08;5.90;;;4.70;;
9771;SDS011;4925;52.588;13.370;2023-10-31T05:33:34;4.97;;;4.47;;
9771;SDS011;4925;52.588;13.370;2023-10-31T05:35:59;4.70;;;4.20;;
9771;SDS011;4925;52.588;13.370;2023-10-31T05:38:26;4.50;;;4.10;;
9771;SDS011;4925;52.588;13.370;2023-10-31T05:40:53;5.20;;;4.23;;
9771;SDS011;4925;52.588;13.370;2023-10-31T05:43:18;4.57;;;4.17;;
9771;SDS011;4925;52.588;13.370;2023-10-31T05:45:44;6.10;;;4.03;;
9771;SDS011;4925;52.588;13.370;2023-10-31T05:48:10;4.73;;;4.33;;
9771;SDS011;4925;52.588;13.370;2023-10-31T05:50:36;4.03;;;3.13;;
9771;SDS011;4925;52.588;13.370;2023-10-31T05:53:02;4.83;;;3.53;;
9771;SDS011;4925;52.588;13.370;2023-10-31T05:55:27;3.83;;;3.53;;
9771;SDS011;4925;52.588;13.370;2023-10-31T05:57:53;4.33;;;3.90;;
9771;SDS011;4925;52.588;13.370;2023-10-31T06:00:19;6.17;;;3.83;;
9771;SDS011;4925;52.588;13.370;2023-10-31T06:02:44;4.67;;;3.20;;
9771;SDS011;4925;52.588;13.370;2023-10-31T06:05:10;4.00;;;3.63;;
9771;SDS011;4925;52.588;13.370;2023-10-31T06:07:35;3.70;;;3.40;;
9771;SDS011;4925;52.588;13.370;2023-10-31T06:10:02;3.70;;;3.43;;
9771;SDS011;4925;52.588;13.370;2023-10-31T06:12:29;4.87;;;3.70;;
9771;SDS011;4925;52.588;13.370;2023-10-31T06:14:55;4.67;;;4.00;;
9771;SDS011;4925;52.588;13.370;2023-10-31T06:17:22;4.20;;;3.90;;
9771;SDS011;4925;52.588;13.370;2023-10-31T06:19:48;4.63;;;4.10;;
9771;SDS011;4925;52.588;13.370;2023-10-31T06:22:13;4.40;;;4.10;;
9771;SDS011;4925;52.588;13.370;2023-10-31T06:24:39;5.47;;;4.97;;
9771;SDS011;4925;52.588;13.370;2023-10-31T06:27:05;5.53;;;5.00;;
9771;SDS011;4925;52.588;13.370;2023-10-31T06:29:31;5.80;;;5.20;;
9771;SDS011;4925;52.588;13.370;2023-10-31T06:31:57;6.77;;;6.17;;
9771;SDS011;4925;52.588;13.370;2023-10-31T06:34:22;8.10;;;6.83;;
9771;SDS011;4925;52.588;13.370;2023-10-31T06:36:48;6.60;;;5.97;;
9771;SDS011;4925;52.588;13.370;2023-10-31T06:39:14;6.83;;;6.23;;
9771;SDS011;4925;52.588;13.370;2023-10-31T06:41:39;7.83;;;6.27;;
9771;SDS011;4925;52.588;13.370;2023-10-31T06:44:05;7.33;;;6.30;;
9771;SDS011;4925;52.588;13.370;2023-10-31T06:46:31;6.90;;;6.20;;
9771;SDS011;4925;52.588;13.370;2023-10-31T06:48:57;6.93;;;6.07;;
9771;SDS011;4925;52.588;13.370;2023-10-31T06:51:23;8.20;;;6.27;;
9771;SDS011;4925;52.588;13.370;2023-10-31T06:53:48;7.23;;;5.50;;
9771;SDS011;4925;52.588;13.370;2023-10-31T06:56:14;6.67;;;6.07;;
9771;SDS011;4925;52.588;13.370;2023-10-31T06:58:39;6.00;;;5.40;;
9771;SDS011;4925;52.588;13.370;2023-10-31T07:01:05;9.30;;;6.03;;
9771;SDS011;4925;52.588;13.370;2023-10-31T07:03:31;8.40;;;5.53;;
9771;SDS011;4925;52.588;13.370;2023-10-31T07:05:57;9.17;;;5.83;;
9771;SDS011;4925;52.588;13.370;2023-10-31T07:08:24;6.77;;;6.07;;
9771;SDS011;4925;52.588;13.370;2023-10-31T07:10:50;6.30;;;5.73;;
9771;SDS011;4925;52.588;13.370;2023-10-31T07:13:15;8.10;;;5.37;;
9771;SDS011;4925;52.588;13.370;2023-10-31T07:15:41;5.43;;;4.83;;
9771;SDS011;4925;52.588;13.370;2023-10-31T07:18:07;7.83;;;4.40;;
9771;SDS011;4925;52.588;13.370;2023-10-31T07:20:33;4.23;;;3.83;;
9771;SDS011;4925;52.588;13.370;2023-10-31T07:22:58;2.90;;;2.67;;
9771;SDS011;4925;52.588;13.370;2023-10-31T07:25:24;3.63;;;2.60;;
9771;SDS011;4925;52.588;13.370;2023-10-31T07:27:50;3.60;;;2.57;;
9771;SDS011;4925;52.588;13.370;2023-10-31T07:30:15;3.53;;;2.10;;
9771;SDS011;4925;52.588;13.370;2023-10-31T07:32:41;3.27;;;2.43;;
9771;SDS011;4925;52.588;13.370;2023-10-31T07:35:07;2.47;;;2.27;;
9771;SDS011;4925;52.588;13.370;2023-10-31T07:37:33;2.20;;;1.77;;
9771;SDS011;4925;52.588;13.370;2023-10-31T07:39:58;3.40;;;2.17;;
9771;SDS011;4925;52.588;13.370;2023-10-31T07:42:24;1.90;;;1.80;;
9771;SDS011;4925;52.588;13.370;2023-10-31T07:44:50;1.87;;;1.77;;
9771;SDS011;4925;52.588;13.370;2023-10-31T07:47:16;2.10;;;1.87;;
9771;SDS011;4925;52.588;13.370;2023-10-31T07:49:42;1.63;;;1.53;;
9771;SDS011;4925;52.588;13.370;2023-10-31T07:52:09;1.97;;;1.87;;
9771;SDS011;4925;52.588;13.370;2023-10-31T07:54:41;1.77;;;1.57;;
9771;SDS011;4925;52.588;13.370;2023-10-31T07:57:07;2.07;;;1.40;;
9771;SDS011;4925;52.588;13.370;2023-10-31T07:59:33;1.87;;;1.47;;
9771;SDS011;4925;52.588;13.370;2023-10-31T08:02:00;1.83;;;1.70;;
9771;SDS011;4925;52.588;13.370;2023-10-31T08:04:27;1.60;;;1.50;;
9771;SDS011;4925;52.588;13.370;2023-10-31T08:06:53;6.90;;;1.60;;
9771;SDS011;4925;52.588;13.370;2023-10-31T08:09:22;1.40;;;1.30;;
9771;SDS011;4925;52.588;13.370;2023-10-31T08:11:47;1.20;;;1.20;;
9771;SDS011;4925;52.588;13.370;2023-10-31T08:14:13;1.90;;;1.00;;
9771;SDS011;4925;52.588;13.370;2023-10-31T08:16:41;3.57;;;1.20;;
9771;SDS011;4925;52.588;13.370;2023-10-31T08:19:07;1.60;;;1.07;;
9771;SDS011;4925;52.588;13.370;2023-10-31T08:21:33;0.77;;;0.77;;
9771;SDS011;4925;52.588;13.370;2023-10-31T08:24:01;1.27;;;0.70;;
9771;SDS011;4925;52.588;13.370;2023-10-31T08:26:28;0.60;;;0.60;;
9771;SDS011;4925;52.588;13.370;2023-10-31T08:28:55;0.73;;;0.73;;
9771;SDS011;4925;52.588;13.370;2023-10-31T08:31:21;2.60;;;0.90;;
9771;SDS011;4925;52.588;13.370;2023-10-31T08:33:48;0.60;;;0.60;;
9771;SDS011;4925;52.588;13.370;2023-10-31T08:36:14;1.23;;;0.53;;
9771;SDS011;4925;52.588;13.370;2023-10-31T08:38:40;0.60;;;0.60;;
9771;SDS011;4925;52.588;13.370;2023-10-31T08:41:05;0.70;;;0.70;;
9771;SDS011;4925;52.588;13.370;2023-10-31T08:43:31;2.93;;;0.60;;
9771;SDS011;4925;52.588;13.370;2023-10-31T08:45:57;1.37;;;0.60;;
9771;SDS011;4925;52.588;13.370;2023-10-31T08:48:22;2.23;;;0.80;;
9771;SDS011;4925;52.588;13.370;2023-10-31T08:50:50;0.67;;;0.47;;
9771;SDS011;4925;52.588;13.370;2023-10-31T08:53:17;0.50;;;0.50;;
9771;SDS011;4925;52.588;13.370;2023-10-31T08:55:44;2.07;;;0.60;;
9771;SDS011;4925;52.588;13.370;2023-10-31T08:58:11;0.70;;;0.70;;
9771;SDS011;4925;52.588;13.370;2023-10-31T09:00:37;2.20;;;0.60;;
9771;SDS011;4925;52.588;13.370;2023-10-31T09:03:03;0.87;;;0.70;;
9771;SDS011;4925;52.588;13.370;2023-10-31T09:05:29;1.50;;;0.60;;
9771;SDS011;4925;52.588;13.370;2023-10-31T09:07:55;0.53;;;0.53;;
9771;SDS011;4925;52.588;13.370;2023-10-31T09:10:23;0.93;;;0.33;;
9771;SDS011;4925;52.588;13.370;2023-10-31T09:12:49;0.50;;;0.50;;
9771;SDS011;4925;52.588;13.370;2023-10-31T09:15:14;0.50;;;0.50;;
9771;SDS011;4925;52.588;13.370;2023-10-31T09:17:40;0.60;;;0.60;;
9771;SDS011;4925;52.588;13.370;2023-10-31T09:20:07;1.13;;;0.40;;
9771;SDS011;4925;52.588;13.370;2023-10-31T09:22:33;0.53;;;0.53;;
9771;SDS011;4925;52.588;13.370;2023-10-31T09:25:00;1.70;;;0.60;;
9771;SDS011;4925;52.588;13.370;2023-10-31T09:27:27;0.43;;;0.43;;
9771;SDS011;4925;52.588;13.370;2023-10-31T09:29:54;0.57;;;0.40;;
9771;SDS011;4925;52.588;13.370;2023-10-31T09:32:19;0.40;;;0.40;;
9771;SDS011;4925;52.588;13.370;2023-10-31T09:34:45;1.97;;;0.40;;
9771;SDS011;4925;52.588;13.370;2023-10-31T09:37:11;2.20;;;0.63;;
9771;SDS011;4925;52.588;13.370;2023-10-31T09:39:36;1.07;;;0.40;;
9771;SDS011;4925;52.588;13.370;2023-10-31T09:42:02;1.90;;;0.50;;
9771;SDS011;4925;52.588;13.370;2023-10-31T09:44:28;1.70;;;0.40;;
9771;SDS011;4925;52.588;13.370;2023-10-31T09:46:54;0.70;;;0.43;;
9771;SDS011;4925;52.588;13.370;2023-10-31T09:49:21;0.40;;;0.40;;
9771;SDS011;4925;52.588;13.370;2023-10-31T09:51:48;3.97;;;0.77;;
9771;SDS011;4925;52.588;13.370;2023-10-31T09:54:14;0.47;;;0.47;;
9771;SDS011;4925;52.588;13.370;2023-10-31T09:56:41;1.33;;;0.50;;
9771;SDS011;4925;52.588;13.370;2023-10-31T09:59:08;0.40;;;0.40;;
9771;SDS011;4925;52.588;13.370;2023-10-31T10:01:35;0.97;;;0.50;;
9771;SDS011;4925;52.588;13.370;2023-10-31T10:04:00;0.50;;;0.50;;
9771;SDS011;4925;52.588;13.370;2023-10-31T10:06:26;0.60;;;0.50;;
9771;SDS011;4925;52.588;13.370;2023-10-31T10:08:52;1.07;;;0.40;;
9771;SDS011;4925;52.588;13.370;2023-10-31T10:11:20;0.63;;;0.53;;
9771;SDS011;4925;52.588;13.370;2023-10-31T10:13:46;1.10;;;0.50;;
9771;SDS011;4925;52.588;13.370;2023-10-31T10:16:12;1.50;;;0.77;;
9771;SDS011;4925;52.588;13.370;2023-10-31T10:18:38;0.60;;;0.60;;
9771;SDS011;4925;52.588;13.370;2023-10-31T10:21:07;4.07;;;0.60;;
9771;SDS011;4925;52.588;13.370;2023-10-31T10:23:33;1.33;;;0.80;;
9771;SDS011;4925;52.588;13.370;2023-10-31T10:25:59;0.90;;;0.90;;
9771;SDS011;4925;52.588;13.370;2023-10-31T10:28:26;0.50;;;0.50;;
9771;SDS011;4925;52.588;13.370;2023-10-31T10:30:54;0.97;;;0.67;;
9771;SDS011;4925;52.588;13.370;2023-10-31T10:33:20;1.20;;;0.70;;
9771;SDS011;4925;52.588;13.370;2023-10-31T10:35:48;1.13;;;0.60;;
9771;SDS011;4925;52.588;13.370;2023-10-31T10:38:17;1.67;;;0.70;;
9771;SDS011;4925;52.588;13.370;2023-10-31T10:40:46;2.30;;;1.00;;
9771;SDS011;4925;52.588;13.370;2023-10-31T10:43:23;1.43;;;1.33;;
9771;SDS011;4925;52.588;13.370;2023-10-31T10:48:24;2.23;;;0.97;;
9771;SDS011;4925;52.588;13.370;2023-10-31T10:53:50;0.80;;;0.80;;
9771;SDS011;4925;52.588;13.370;2023-10-31T10:56:26;5.80;;;1.33;;
9771;SDS011;4925;52.588;13.370;2023-10-31T11:01:30;0.93;;;0.90;;
9771;SDS011;4925;52.588;13.370;2023-10-31T11:03:57;0.90;;;0.80;;
9771;SDS011;4925;52.588;13.370;2023-10-31T11:06:25;3.40;;;0.83;;
9771;SDS011;4925;52.588;13.370;2023-10-31T11:08:51;1.10;;;1.00;;
9771;SDS011;4925;52.588;13.370;2023-10-31T11:11:18;1.70;;;0.97;;
9771;SDS011;4925;52.588;13.370;2023-10-31T11:13:46;1.20;;;1.10;;
9771;SDS011;4925;52.588;13.370;2023-10-31T11:16:24;0.90;;;0.90;;
9771;SDS011;4925;52.588;13.370;2023-10-31T11:19:13;0.90;;;0.90;;
9771;SDS011;4925;52.588;13.370;2023-10-31T11:22:02;2.10;;;1.43;;
9771;SDS011;4925;52.588;13.370;2023-10-31T11:24:31;1.50;;;1.00;;
9771;SDS011;4925;52.588;13.370;2023-10-31T11:26:59;1.10;;;0.90;;
9771;SDS011;4925;52.588;13.370;2023-10-31T11:29:27;2.00;;;1.37;;
9771;SDS011;4925;52.588;13.370;2023-10-31T11:31:57;1.33;;;1.23;;
9771;SDS011;4925;52.588;13.370;2023-10-31T11:34:28;3.57;;;1.20;;
9771;SDS011;4925;52.588;13.370;2023-10-31T11:42:42;1.80;;;1.40;;
9771;SDS011;4925;52.588;13.370;2023-10-31T11:45:13;2.07;;;1.40;;
9771;SDS011;4925;52.588;13.370;2023-10-31T11:47:51;1.23;;;1.13;;
9771;SDS011;4925;52.588;13.370;2023-10-31T11:50:17;1.27;;;1.13;;
9771;SDS011;4925;52.588;13.370;2023-10-31T11:52:43;3.03;;;1.03;;
9771;SDS011;4925;52.588;13.370;2023-10-31T11:55:10;1.63;;;0.90;;
9771;SDS011;4925;52.588;13.370;2023-10-31T11:57:37;0.90;;;0.90;;
9771;SDS011;4925;52.588;13.370;2023-10-31T12:00:06;1.27;;;1.17;;
9771;SDS011;4925;52.588;13.370;2023-10-31T12:02:35;1.40;;;1.27;;
9771;SDS011;4925;52.588;13.370;2023-10-31T12:05:09;1.23;;;1.13;;
9771;SDS011;4925;52.588;13.370;2023-10-31T12:07:43;0.93;;;0.93;;
9771;SDS011;4925;52.588;13.370;2023-10-31T12:10:10;1.17;;;0.87;;
9771;SDS011;4925;52.588;13.370;2023-10-31T12:12:38;0.80;;;0.80;;
9771;SDS011;4925;52.588;13.370;2023-10-31T12:15:07;1.10;;;0.87;;
9771;SDS011;4925;52.588;13.370;2023-10-31T12:17:34;1.90;;;0.80;;
9771;SDS011;4925;52.588;13.370;2023-10-31T12:20:07;0.70;;;0.70;;
9771;SDS011;4925;52.588;13.370;2023-10-31T12:22:34;0.70;;;0.70;;
9771;SDS011;4925;52.588;13.370;2023-10-31T12:25:05;0.83;;;0.83;;
9771;SDS011;4925;52.588;13.370;2023-10-31T12:27:48;1.50;;;0.67;;
9771;SDS011;4925;52.588;13.370;2023-10-31T12:30:21;0.60;;;0.60;;
9771;SDS011;4925;52.588;13.370;2023-10-31T12:32:53;0.60;;;0.60;;
9771;SDS011;4925;52.588;13.370;2023-10-31T12:35:22;0.80;;;0.80;;
9771;SDS011;4925;52.588;13.370;2023-10-31T12:37:50;1.17;;;1.17;;
9771;SDS011;4925;52.588;13.370;2023-10-31T12:40:17;1.00;;;1.00;;
9771;SDS011;4925;52.588;13.370;2023-10-31T12:42:48;0.90;;;0.90;;
9771;SDS011;4925;52.588;13.370;2023-10-31T12:45:18;2.53;;;0.90;;
9771;SDS011;4925;52.588;13.370;2023-10-31T12:47:43;0.60;;;0.60;;
9771;SDS011;4925;52.588;13.370;2023-10-31T12:50:12;1.47;;;0.67;;
9771;SDS011;4925;52.588;13.370;2023-10-31T12:52:53;2.10;;;0.50;;
9771;SDS011;4925;52.588;13.370;2023-10-31T12:55:23;0.60;;;0.60;;
9771;SDS011;4925;52.588;13.370;2023-10-31T12:57:50;0.70;;;0.53;;
9771;SDS011;4925;52.588;13.370;2023-10-31T13:00:17;0.63;;;0.50;;
9771;SDS011;4925;52.588;13.370;2023-10-31T13:02:50;1.43;;;0.50;;
9771;SDS011;4925;52.588;13.370;2023-10-31T13:05:33;0.60;;;0.60;;
9771;SDS011;4925;52.588;13.370;2023-10-31T13:08:00;2.10;;;0.47;;
9771;SDS011;4925;52.588;13.370;2023-10-31T13:10:29;0.43;;;0.43;;
9771;SDS011;4925;52.588;13.370;2023-10-31T13:12:58;3.23;;;0.43;;
9771;SDS011;4925;52.588;13.370;2023-10-31T13:15:25;0.87;;;0.50;;
9771;SDS011;4925;52.588;13.370;2023-10-31T13:17:51;0.43;;;0.43;;
9771;SDS011;4925;52.588;13.370;2023-10-31T13:20:20;0.40;;;0.40;;
9771;SDS011;4925;52.588;13.370;2023-10-31T13:22:46;0.40;;;0.40;;
9771;SDS011;4925;52.588;13.370;2023-10-31T13:25:14;1.43;;;0.37;;
9771;SDS011;4925;52.588;13.370;2023-10-31T13:27:45;0.40;;;0.40;;
9771;SDS011;4925;52.588;13.370;2023-10-31T13:30:16;1.10;;;0.50;;
9771;SDS011;4925;52.588;13.370;2023-10-31T13:32:42;0.50;;;0.20;;
9771;SDS011;4925;52.588;13.370;2023-10-31T13:35:09;0.40;;;0.40;;
9771;SDS011;4925;52.588;13.370;2023-10-31T13:37:36;0.23;;;0.23;;
9771;SDS011;4925;52.588;13.370;2023-10-31T13:40:03;1.13;;;0.40;;
9771;SDS011;4925;52.588;13.370;2023-10-31T13:42:29;1.10;;;0.40;;
9771;SDS011;4925;52.588;13.370;2023-10-31T13:44:55;0.50;;;0.50;;
9771;SDS011;4925;52.588;13.370;2023-10-31T13:47:20;1.23;;;0.30;;
9771;SDS011;4925;52.588;13.370;2023-10-31T13:49:46;0.30;;;0.30;;
9771;SDS011;4925;52.588;13.370;2023-10-31T13:52:13;0.30;;;0.30;;
9771;SDS011;4925;52.588;13.370;2023-10-31T13:54:41;0.40;;;0.33;;
9771;SDS011;4925;52.588;13.370;2023-10-31T13:57:07;0.50;;;0.50;;
9771;SDS011;4925;52.588;13.370;2023-10-31T13:59:32;0.70;;;0.40;;
9771;SDS011;4925;52.588;13.370;2023-10-31T14:01:59;2.80;;;0.30;;
9771;SDS011;4925;52.588;13.370;2023-10-31T14:04:26;0.40;;;0.40;;
9771;SDS011;4925;52.588;13.370;2023-10-31T14:06:54;3.03;;;0.40;;
9771;SDS011;4925;52.588;13.370;2023-10-31T14:09:19;0.93;;;0.30;;
9771;SDS011;4925;52.588;13.370;2023-10-31T14:11:46;0.97;;;0.30;;
9771;SDS011;4925;52.588;13.370;2023-10-31T14:14:12;0.43;;;0.43;;
9771;SDS011;4925;52.588;13.370;2023-10-31T14:16:42;2.80;;;0.40;;
9771;SDS011;4925;52.588;13.370;2023-10-31T14:19:09;0.30;;;0.30;;
9771;SDS011;4925;52.588;13.370;2023-10-31T14:21:35;0.37;;;0.37;;
9771;SDS011;4925;52.588;13.370;2023-10-31T14:24:02;0.30;;;0.30;;
9771;SDS011;4925;52.588;13.370;2023-10-31T14:26:29;0.50;;;0.33;;
9771;SDS011;4925;52.588;13.370;2023-10-31T14:28:55;0.40;;;0.40;;
9771;SDS011;4925;52.588;13.370;2023-10-31T14:31:21;3.00;;;0.43;;
9771;SDS011;4925;52.588;13.370;2023-10-31T14:33:46;0.30;;;0.30;;
9771;SDS011;4925;52.588;13.370;2023-10-31T14:36:13;1.80;;;0.40;;
9771;SDS011;4925;52.588;13.370;2023-10-31T14:38:39;0.90;;;0.60;;
9771;SDS011;4925;52.588;13.370;2023-10-31T14:41:06;0.67;;;0.57;;
9771;SDS011;4925;52.588;13.370;2023-10-31T14:43:35;1.83;;;1.17;;
9771;SDS011;4925;52.588;13.370;2023-10-31T14:46:02;0.37;;;0.30;;
9771;SDS011;4925;52.588;13.370;2023-10-31T14:48:29;0.30;;;0.30;;
9771;SDS011;4925;52.588;13.370;2023-10-31T14:50:59;0.60;;;0.60;;
9771;SDS011;4925;52.588;13.370;2023-10-31T14:53:26;0.73;;;0.60;;
9771;SDS011;4925;52.588;13.370;2023-10-31T14:55:53;0.40;;;0.40;;
9771;SDS011;4925;52.588;13.370;2023-10-31T14:58:21;1.17;;;0.57;;
9771;SDS011;4925;52.588;13.370;2023-10-31T15:00:48;0.37;;;0.37;;
9771;SDS011;4925;52.588;13.370;2023-10-31T15:03:16;0.40;;;0.40;;
9771;SDS011;4925;52.588;13.370;2023-10-31T15:05:43;0.50;;;0.50;;
9771;SDS011;4925;52.588;13.370;2023-10-31T15:08:09;2.00;;;0.60;;
9771;SDS011;4925;52.588;13.370;2023-10-31T15:10:35;0.30;;;0.30;;
9771;SDS011;4925;52.588;13.370;2023-10-31T15:13:03;0.67;;;0.60;;